Time;durP1;ratioP1;P1;durP2;ratioP2;P2;SDS_P1;SDS_P2;PMS_P1;PMS_P2;Temp;Humidity;BMP_temperature;BMP_pressure;BME280_temperature;BME280_humidity;BME280_pressure;Samples;Min_cycle;Max_cycle;Signal;HPM_P1;HPM_P2
2023/11/23 00:04:20;;;;;;;;;;;;;;;5.06;100.00;102061.59;6227724;23;19946;-79
2023/11/23 00:06:55;;;;;;;;;;;;;;;5.17;100.00;102053.50;6144494;23;19939;-79
2023/11/23 00:21:05;;;;;;;;;;;;;;;5.26;100.00;102046.53;6217576;23;19953;-79
2023/11/23 00:49:35;;;;;;;;;;;;;;;5.26;100.00;102003.81;6211984;23;19924;-80
2023/11/23 00:52:06;;;;;;;;;;;;;;;5.28;100.00;102008.06;6216363;23;19919;-80
2023/11/23 00:54:40;;;;;;;;;;;;;;;5.25;100.00;102000.31;6216298;23;19919;-80
2023/11/23 00:57:28;;;;;;;;;;;;;;;5.28;100.00;101985.84;6214722;23;19920;-80
2023/11/23 01:00:06;;;;;;;;;;;;;;;5.36;100.00;101994.03;6215449;23;19911;-80
2023/11/23 01:02:31;;;;;;;;;;;;;;;5.38;100.00;101997.41;6216743;23;19948;-79
2023/11/23 01:04:57;;;;;;;;;;;;;;;5.46;100.00;101992.22;6217169;23;19967;-80
2023/11/23 01:07:38;;;;;;;;;;;;;;;5.49;100.00;101985.75;6206675;23;19912;-80
2023/11/23 01:10:10;;;;;;;;;;;;;;;5.54;100.00;101986.22;6216201;23;19943;-79
2023/11/23 01:12:35;;;;;;;;;;;;;;;5.50;100.00;101987.44;6214061;23;20248;-79
2023/11/23 01:15:01;;;;;;;;;;;;;;;5.48;100.00;101984.06;6215746;23;19919;-79
2023/11/23 01:17:37;;;;;;;;;;;;;;;5.42;100.00;101976.63;6231799;23;19923;-80
2023/11/23 01:20:05;;;;;;;;;;;;;;;5.46;100.00;101978.88;6218854;23;19916;-80
2023/11/23 01:22:34;;;;;;;;;;;;;;;5.58;100.00;101979.63;6217131;23;19918;-80
2023/11/23 01:25:13;;;;;;;;;;;;;;;5.63;100.00;101978.38;6215446;23;19912;-80
2023/11/23 01:27:41;;;;;;;;;;;;;;;5.69;100.00;101988.50;6215638;23;20229;-80
2023/11/23 01:30:29;;;;;;;;;;;;;;;;;;;;;
2023/11/23 01:33:00;;;;;;;;;;;;;;;5.61;100.00;101974.00;6208580;23;19994;-81
2023/11/23 01:35:37;;;;;;;;;;;;;;;5.71;100.00;101978.53;6217026;23;19912;-80
2023/11/23 01:38:03;;;;;;;;;;;;;;;5.72;100.00;101977.53;6216814;23;20341;-80
2023/11/23 01:40:41;;;;;;;;;;;;;;;5.72;100.00;101973.06;6217433;23;19922;-80
2023/11/23 01:43:15;;;;;;;;;;;;;;;5.83;100.00;101981.94;6216993;23;19915;-80
2023/11/23 01:45:40;;;;;;;;;;;;;;;5.83;100.00;101980.09;6220232;23;19935;-80
2023/11/23 01:48:22;;;;;;;;;;;;;;;5.85;100.00;101983.47;6221594;23;19958;-80
2023/11/23 01:50:47;;;;;;;;;;;;;;;5.88;100.00;101980.53;6221800;23;20236;-80
2023/11/23 01:53:31;;;;;;;;;;;;;;;5.89;100.00;101978.72;6189816;23;19916;-80
2023/11/23 01:56:12;;;;;;;;;;;;;;;5.94;100.00;101980.97;6207218;23;19916;-81
2023/11/23 01:58:40;;;;;;;;;;;;;;;5.85;100.00;101978.13;6214865;23;19916;-81
2023/11/23 02:01:14;;;;;;;;;;;;;;;5.87;100.00;101984.19;6189192;23;19912;-80
2023/11/23 02:03:39;;;;;;;;;;;;;;;5.91;100.00;101972.25;6215587;23;19978;-80
2023/11/23 02:06:05;;;;;;;;;;;;;;;5.97;100.00;101970.00;6186851;23;20435;-81
2023/11/23 02:08:30;;;;;;;;;;;;;;;5.96;100.00;101968.31;6213119;23;19990;-81
2023/11/23 02:11:08;;;;;;;;;;;;;;;5.93;100.00;101956.06;6215706;23;19912;-80
2023/11/23 02:13:38;;;;;;;;;;;;;;;5.97;100.00;101964.66;6188298;23;19922;-81
2023/11/23 02:16:15;;;;;;;;;;;;;;;6.00;100.00;101957.22;6213974;23;19912;-80
2023/11/23 02:18:52;;;;;;;;;;;;;;;6.02;100.00;101957.06;6214694;23;19939;-81
2023/11/23 02:21:18;;;;;;;;;;;;;;;6.07;100.00;101954.84;6213672;23;19915;-80
2023/11/23 02:23:43;;;;;;;;;;;;;;;6.03;100.00;101948.94;6215304;23;19986;-81
2023/11/23 02:26:09;;;;;;;;;;;;;;;6.11;100.00;101956.25;6213666;23;20329;-80
2023/11/23 02:28:49;;;;;;;;;;;;;;;6.15;100.00;101946.97;6214130;23;20003;-81
2023/11/23 02:31:20;;;;;;;;;;;;;;;6.13;100.00;101948.94;6215355;23;19966;-80
2023/11/23 02:33:45;;;;;;;;;;;;;;;6.18;100.00;101945.84;6215072;23;19916;-80
2023/11/23 02:36:39;;;;;;;;;;;;;;;6.13;100.00;101946.28;6224282;23;19955;-81
2023/11/23 02:39:13;;;;;;;;;;;;;;;6.22;100.00;101942.75;6218073;23;19915;-80
2023/11/23 02:41:38;;;;;;;;;;;;;;;6.22;100.00;101941.91;6215455;23;19916;-80
2023/11/23 02:44:03;;;;;;;;;;;;;;;6.19;100.00;101940.34;6213364;23;19919;-80
2023/11/23 02:46:41;;;;;;;;;;;;;;;6.27;100.00;101944.16;6214842;23;19919;-80
2023/11/23 02:49:12;;;;;;;;;;;;;;;6.29;100.00;101942.19;6214309;23;19920;-80
2023/11/23 02:51:43;;;;;;;;;;;;;;;6.26;100.00;101948.66;6214388;23;19912;-80
2023/11/23 02:54:09;;;;;;;;;;;;;;;6.34;100.00;101942.59;6215678;23;19919;-80
2023/11/23 02:56:49;;;;;;;;;;;;;;;6.46;100.00;101952.16;6212731;23;19916;-80
2023/11/23 02:59:15;;;;;;;;;;;;;;;6.56;100.00;101938.78;6214345;23;19934;-80
2023/11/23 03:01:41;;;;;;;;;;;;;;;6.53;100.00;101941.72;6231803;23;19919;-80
2023/11/23 03:04:13;;;;;;;;;;;;;;;6.54;100.00;101935.41;6226138;23;19930;-80
2023/11/23 03:06:41;;;;;;;;;;;;;;;6.58;100.00;101939.47;6216118;23;19908;-80
2023/11/23 03:09:23;;;;;;;;;;;;;;;6.65;100.00;101935.22;6215781;23;19912;-80
2023/11/23 03:11:48;;;;;;;;;;;;;;;6.70;100.00;101934.81;6213466;23;19999;-81
2023/11/23 03:14:13;;;;;;;;;;;;;;;6.79;100.00;101944.63;6213454;23;19952;-82
2023/11/23 03:16:40;;;;;;;;;;;;;;;6.80;100.00;101940.97;6214989;23;19935;-81
2023/11/23 03:19:08;;;;;;;;;;;;;;;6.86;100.00;101938.72;6213156;23;19916;-81
2023/11/23 03:21:43;;;;;;;;;;;;;;;6.93;100.00;101937.97;6214414;23;19916;-81
2023/11/23 03:24:08;;;;;;;;;;;;;;;6.99;100.00;101941.91;6215073;23;19912;-81
2023/11/23 03:26:33;;;;;;;;;;;;;;;6.95;100.00;101921.75;6212189;23;20313;-81
2023/11/23 03:29:10;;;;;;;;;;;;;;;7.01;100.00;101923.00;6213715;23;19916;-81
2023/11/23 03:31:42;;;;;;;;;;;;;;;6.98;100.00;101916.13;6217407;23;19912;-81
2023/11/23 03:34:07;;;;;;;;;;;;;;;6.98;100.00;101908.09;6215551;23;19912;-81
2023/11/23 03:36:41;;;;;;;;;;;;;;;7.05;100.00;101908.34;6215297;23;20383;-81
2023/11/23 03:39:07;;;;;;;;;;;;;;;7.06;100.00;101910.84;6216581;23;19908;-81
2023/11/23 03:41:41;;;;;;;;;;;;;;;7.24;100.00;101907.38;6216104;23;19953;-81
2023/11/23 03:44:06;;;;;;;;;;;;;;;7.16;100.00;101904.63;6217416;23;19915;-81
2023/11/23 03:46:38;;;;;;;;;;;;;;;7.17;100.00;101909.81;6219181;23;19912;-80
2023/11/23 04:02:37;;;;;;;;;;;;;;;7.38;100.00;101877.44;6218978;23;19922;-82
2023/11/23 04:05:37;;;;;;;;;;;;;;;7.33;100.00;101882.41;6220340;23;19916;-81
2023/11/23 04:08:05;;;;;;;;;;;;;;;7.43;100.00;101877.81;6227590;23;19978;-82
2023/11/23 04:10:42;;;;;;;;;;;;;;;7.40;100.00;101859.38;6228304;23;19916;-82
2023/11/23 04:13:24;;;;;;;;;;;;;;;7.50;100.00;101869.19;6218863;23;19924;-82
2023/11/23 04:15:49;;;;;;;;;;;;;;;7.50;100.00;101867.34;6215593;23;19912;-81
2023/11/23 04:18:41;;;;;;;;;;;;;;;7.47;100.00;101882.88;6216630;23;19961;-81
2023/11/23 04:21:06;;;;;;;;;;;;;;;7.43;100.00;101864.41;6215466;23;19927;-81
2023/11/23 04:23:37;;;;;;;;;;;;;;;7.54;100.00;101870.56;6217293;23;19916;-81
2023/11/23 04:26:03;;;;;;;;;;;;;;;7.58;100.00;101863.94;6215495;23;19912;-81
2023/11/23 04:28:38;;;;;;;;;;;;;;;7.64;100.00;101865.97;6215307;23;20317;-81
2023/11/23 04:31:13;;;;;;;;;;;;;;;7.67;100.00;101867.53;6218522;23;19912;-81
2023/11/23 04:33:51;;;;;;;;;;;;;;;7.62;100.00;101865.28;6232124;23;20321;-81
2023/11/23 04:36:47;;;;;;;;;;;;;;;7.63;100.00;101866.16;6234277;23;19942;-81
2023/11/23 04:39:12;;;;;;;;;;;;;;;7.62;100.00;101862.59;6219772;23;19912;-80
2023/11/23 04:41:47;;;;;;;;;;;;;;;7.68;100.00;101874.53;6216574;23;19935;-80
2023/11/23 04:44:12;;;;;;;;;;;;;;;7.65;100.00;101870.34;6214851;23;19912;-80
2023/11/23 04:46:39;;;;;;;;;;;;;;;7.65;100.00;101864.97;6216340;23;19919;-80
2023/11/23 04:49:05;;;;;;;;;;;;;;;7.68;100.00;101869.19;6214179;23;19947;-80
2023/11/23 04:51:30;;;;;;;;;;;;;;;7.76;100.00;101860.41;6214991;23;19912;-80
2023/11/23 04:54:02;;;;;;;;;;;;;;;7.74;100.00;101858.72;6215678;23;20018;-80
2023/11/23 04:56:42;;;;;;;;;;;;;;;7.80;100.00;101861.75;6215193;23;19916;-80
2023/11/23 04:59:22;;;;;;;;;;;;;;;7.93;100.00;101867.59;6215328;23;20222;-80
2023/11/23 05:01:47;;;;;;;;;;;;;;;7.87;100.00;101868.22;6215149;23;20345;-80
2023/11/23 05:04:25;;;;;;;;;;;;;;;7.87;100.00;101868.22;6214188;23;19911;-80
2023/11/23 05:06:56;;;;;;;;;;;;;;;7.85;100.00;101864.84;6217536;23;19946;-80
2023/11/23 05:09:21;;;;;;;;;;;;;;;7.93;100.00;101856.88;6195165;23;19927;-80
2023/11/23 05:11:59;;;;;;;;;;;;;;;7.94;100.00;101855.88;6217484;23;19911;-80
2023/11/23 05:14:32;;;;;;;;;;;;;;;7.99;100.00;101866.13;6215583;23;19912;-80
2023/11/23 05:16:58;;;;;;;;;;;;;;;7.95;100.00;101880.84;6216485;23;19912;-78
2023/11/23 05:19:35;;;;;;;;;;;;;;;7.97;100.00;101890.41;6218541;23;19918;-77
2023/11/23 05:22:12;;;;;;;;;;;;;;;8.03;100.00;101873.72;6221617;23;19912;-77
2023/11/23 05:24:37;;;;;;;;;;;;;;;8.12;100.00;101866.56;6216463;23;19971;-77
2023/11/23 05:27:06;;;;;;;;;;;;;;;8.14;100.00;101877.13;6217463;23;19916;-77
2023/11/23 05:29:31;;;;;;;;;;;;;;;8.20;100.00;101871.16;6217729;23;19915;-76
2023/11/23 05:31:57;;;;;;;;;;;;;;;8.19;100.00;101866.78;6217968;23;19912;-77
2023/11/23 05:34:22;;;;;;;;;;;;;;;8.21;100.00;101864.78;6234031;23;19916;-77
2023/11/23 05:36:53;;;;;;;;;;;;;;;8.24;100.00;101869.00;6232330;23;19912;-77
2023/11/23 05:39:18;;;;;;;;;;;;;;;8.24;100.00;101858.25;6216608;23;19959;-77
2023/11/23 05:41:44;;;;;;;;;;;;;;;8.27;100.00;101858.81;6215803;23;20328;-77
2023/11/23 05:44:09;;;;;;;;;;;;;;;8.32;100.00;101850.28;6214883;23;19916;-77
2023/11/23 05:46:34;;;;;;;;;;;;;;;8.33;100.00;101844.75;6214900;23;19939;-77
2023/11/23 05:48:59;;;;;;;;;;;;;;;8.37;100.00;101847.97;6214040;23;19966;-78
2023/11/23 05:51:25;;;;;;;;;;;;;;;8.38;100.00;101840.75;6215405;23;19912;-78
2023/11/23 05:53:50;;;;;;;;;;;;;;;8.43;100.00;101841.97;6212707;23;19938;-78
2023/11/23 05:56:16;;;;;;;;;;;;;;;8.41;100.00;101832.41;6214491;23;20320;-78
2023/11/23 05:58:41;;;;;;;;;;;;;;;8.43;100.00;101835.78;6215163;23;19920;-78
2023/11/23 06:01:06;;;;;;;;;;;;;;;8.52;100.00;101829.47;6214643;23;20317;-78
2023/11/23 06:03:31;;;;;;;;;;;;;;;8.55;100.00;101839.88;6215046;23;20354;-78
2023/11/23 06:05:57;;;;;;;;;;;;;;;8.56;100.00;101825.47;6214456;23;19966;-78
2023/11/23 06:08:22;;;;;;;;;;;;;;;8.56;100.00;101825.47;6214147;23;20113;-78
2023/11/23 06:10:47;;;;;;;;;;;;;;;8.55;100.00;101820.28;6214375;23;19951;-78
2023/11/23 06:13:12;;;;;;;;;;;;;;;8.62;100.00;101824.84;6213145;23;19919;-78
2023/11/23 06:15:40;;;;;;;;;;;;;;;8.58;100.00;101827.97;6215149;23;19912;-78
2023/11/23 06:18:06;;;;;;;;;;;;;;;8.58;100.00;101834.22;6214554;23;19939;-78
2023/11/23 06:20:31;;;;;;;;;;;;;;;8.55;100.00;101815.75;6214725;23;19919;-78
2023/11/23 06:22:59;;;;;;;;;;;;;;;8.53;100.00;101823.09;6216156;23;19912;-78
2023/11/23 06:25:25;;;;;;;;;;;;;;;8.54;100.00;101830.16;6214523;23;19955;-78
2023/11/23 06:27:50;;;;;;;;;;;;;;;8.56;100.00;101824.66;6213176;23;19958;-77
2023/11/23 06:30:18;;;;;;;;;;;;;;;8.55;100.00;101823.78;6216084;23;19912;-78
2023/11/23 06:32:43;;;;;;;;;;;;;;;8.55;100.00;101822.97;6215093;23;19920;-78
2023/11/23 06:35:17;;;;;;;;;;;;;;;8.54;100.00;101830.16;6196448;22;19999;-78
2023/11/23 06:37:42;;;;;;;;;;;;;;;8.55;100.00;101822.97;6186417;23;19917;-78
2023/11/23 06:40:08;;;;;;;;;;;;;;;8.60;100.00;101824.16;6189392;23;19912;-77
2023/11/23 06:42:33;;;;;;;;;;;;;;;8.59;100.00;101811.75;6194416;23;20333;-78
2023/11/23 06:44:59;;;;;;;;;;;;;;;8.61;100.00;101807.06;6185558;23;19959;-78
2023/11/23 06:47:24;;;;;;;;;;;;;;;8.58;100.00;101818.09;6188720;23;19927;-78
2023/11/23 06:49:50;;;;;;;;;;;;;;;8.58;100.00;101814.56;6187587;23;20119;-78
2023/11/23 06:52:15;;;;;;;;;;;;;;;8.58;100.00;101823.47;6185347;23;19948;-77
2023/11/23 06:54:40;;;;;;;;;;;;;;;8.58;100.00;101818.09;6183578;23;19916;-78
2023/11/23 06:57:06;;;;;;;;;;;;;;;8.62;100.00;101822.16;6186421;23;19912;-78
2023/11/23 06:59:33;;;;;;;;;;;;;;;8.63;100.00;101823.84;6185960;23;19943;-78
2023/11/23 07:01:58;;;;;;;;;;;;;;;8.63;100.00;101831.91;6183982;23;19916;-78
2023/11/23 07:04:23;;;;;;;;;;;;;;;8.65;100.00;101831.72;6182217;23;20020;-78
2023/11/23 07:06:49;;;;;;;;;;;;;;;8.70;100.00;101823.19;6184744;23;19995;-77
2023/11/23 07:09:16;;;;;;;;;;;;;;;8.78;100.00;101833.97;6183338;23;19919;-78
2023/11/23 07:11:41;;;;;;;;;;;;;;;8.77;100.00;101821.56;6182849;23;20329;-78
2023/11/23 07:14:07;;;;;;;;;;;;;;;8.74;100.00;101817.31;6184386;23;19948;-77
2023/11/23 07:16:32;;;;;;;;;;;;;;;8.78;100.00;101810.63;6186550;23;19928;-77
2023/11/23 07:18:58;;;;;;;;;;;;;;;8.77;100.00;101800.91;6189257;23;19912;-83
2023/11/23 07:21:23;;;;;;;;;;;;;;;8.77;100.00;101794.72;6186333;23;19912;-79
2023/11/23 07:23:48;;;;;;;;;;;;;;;8.86;100.00;101792.91;6183873;23;20101;-79
2023/11/23 07:26:13;;;;;;;;;;;;;;;8.86;100.00;101793.72;6184276;23;19916;-80
2023/11/23 07:28:38;;;;;;;;;;;;;;;8.88;100.00;101791.72;6185292;23;19920;-78
2023/11/23 07:31:09;;;;;;;;;;;;;;;8.89;100.00;101796.09;6183686;23;19924;-78
2023/11/23 07:33:34;;;;;;;;;;;;;;;8.90;100.00;101805.00;6184765;23;19943;-81
2023/11/23 07:36:05;;;;;;;;;;;;;;;8.92;100.00;101798.44;6184292;23;19971;-79
2023/11/23 07:38:41;;;;;;;;;;;;;;;8.91;100.00;101801.31;6187438;22;19924;-77
2023/11/23 07:41:12;;;;;;;;;;;;;;;8.89;100.00;101804.13;6181561;23;19916;-77
2023/11/23 07:43:38;;;;;;;;;;;;;;;8.91;100.00;101801.31;6183686;23;19923;-77
2023/11/23 07:46:09;;;;;;;;;;;;;;;8.91;100.00;101804.81;6183848;23;19916;-77
2023/11/23 07:48:37;;;;;;;;;;;;;;;9.00;100.00;101800.31;6184957;23;19916;-77
2023/11/23 07:51:11;;;;;;;;;;;;;;;9.03;100.00;101793.78;6184938;23;19917;-77
2023/11/23 07:53:39;;;;;;;;;;;;;;;9.03;100.00;101789.25;6185935;23;19943;-78
2023/11/23 07:56:11;;;;;;;;;;;;;;;9.10;100.00;101805.56;6186205;23;19920;-77
2023/11/23 07:58:51;;;;;;;;;;;;;;;9.10;100.00;101792.94;6189021;23;19999;-78
2023/11/23 08:01:16;;;;;;;;;;;;;;;9.16;100.00;101794.16;6184128;23;19916;-78
2023/11/23 08:03:43;;;;;;;;;;;;;;;9.21;100.00;101796.34;6190716;23;19916;-78
2023/11/23 08:06:09;;;;;;;;;;;;;;;9.17;100.00;101800.38;6176849;23;19923;-78
2023/11/23 08:08:35;;;;;;;;;;;;;;;9.18;100.00;101797.50;6183321;23;19916;-77
2023/11/23 08:11:00;;;;;;;;;;;;;;;9.20;100.00;101810.78;6181282;23;19916;-78
2023/11/23 08:13:25;;;;;;;;;;;;;;;9.22;100.00;101792.66;6183359;23;19951;-82
2023/11/23 08:15:50;;;;;;;;;;;;;;;9.25;100.00;101785.09;6186414;23;19930;-80
2023/11/23 08:18:16;;;;;;;;;;;;;;;9.27;100.00;101797.53;6184054;23;19935;-80
2023/11/23 08:20:41;;;;;;;;;;;;;;;9.25;100.00;101792.34;6183638;23;19921;-81
2023/11/23 08:23:07;;;;;;;;;;;;;;;9.22;100.00;101787.28;6184573;23;19938;-81
2023/11/23 08:25:33;;;;;;;;;;;;;;;9.23;100.00;101788.97;6187070;23;20242;-81
2023/11/23 08:28:03;;;;;;;;;;;;;;;9.25;100.00;101784.28;6185486;23;19939;-80
2023/11/23 08:30:28;;;;;;;;;;;;;;;9.30;100.00;101783.78;6185446;23;20311;-80
2023/11/23 08:32:55;;;;;;;;;;;;;;;9.32;100.00;101784.44;6183589;23;20007;-80
2023/11/23 08:35:20;;;;;;;;;;;;;;;9.28;100.00;101791.97;6183652;23;19967;-81
2023/11/23 08:37:46;;;;;;;;;;;;;;;9.27;100.00;101790.28;6184499;23;20352;-81
2023/11/23 08:40:14;;;;;;;;;;;;;;;9.25;100.00;101793.16;6183576;23;19924;-81
2023/11/23 08:42:39;;;;;;;;;;;;;;;9.23;100.00;101795.16;6182224;23;19920;-80
2023/11/23 08:45:05;;;;;;;;;;;;;;;9.23;100.00;101773.69;6184797;23;19920;-81
2023/11/23 08:47:30;;;;;;;;;;;;;;;9.25;100.00;101779.72;6183746;23;20080;-81
2023/11/23 08:49:56;;;;;;;;;;;;;;;9.27;100.00;101774.19;6183170;23;19912;-80
2023/11/23 08:52:21;;;;;;;;;;;;;;;9.24;100.00;101774.53;6183770;23;19923;-80
2023/11/23 08:54:49;;;;;;;;;;;;;;;9.24;100.00;101755.72;6185523;23;19918;-81
2023/11/23 09:08:30;;;;;;;;;;;;;;;9.23;100.00;101749.50;6186050;23;19967;-80
2023/11/23 09:10:55;;;;;;;;;;;;;;;9.25;100.00;101755.53;6182576;23;19912;-81
2023/11/23 09:13:25;;;;;;;;;;;;;;;9.26;100.00;101734.91;6184290;23;20309;-81
2023/11/23 09:15:59;;;;;;;;;;;;;;;9.28;100.00;101732.03;6183903;23;19916;-81
2023/11/23 09:18:25;;;;;;;;;;;;;;;9.24;100.00;101726.16;6182694;23;19912;-81
2023/11/23 09:20:50;;;;;;;;;;;;;;;9.26;100.00;101729.53;6184541;23;19948;-81
2023/11/23 09:23:16;;;;;;;;;;;;;;;9.31;100.00;101737.91;6185357;23;19916;-80
2023/11/23 09:25:42;;;;;;;;;;;;;;;9.32;100.00;101750.34;6200736;23;19962;-80
2023/11/23 09:28:08;;;;;;;;;;;;;;;9.39;100.00;101724.50;6191515;23;19912;-80
2023/11/23 09:30:33;;;;;;;;;;;;;;;9.42;100.00;101742.13;6183613;23;19934;-80
2023/11/23 09:32:58;;;;;;;;;;;;;;;9.40;100.00;101738.75;6182959;23;20396;-80
2023/11/23 09:35:23;;;;;;;;;;;;;;;9.47;100.00;101731.72;6183196;23;19912;-80
2023/11/23 09:37:53;;;;;;;;;;;;;;;9.64;100.00;101727.16;6183296;23;19990;-79
2023/11/23 09:40:18;;;;;;;;;;;;;;;9.63;100.00;101730.03;6182993;23;19966;-80
2023/11/23 09:42:43;;;;;;;;;;;;;;;9.66;100.00;101729.69;6181213;23;19916;-79
2023/11/23 09:45:14;;;;;;;;;;;;;;;9.69;100.00;101724.81;6183005;23;19919;-79
2023/11/23 09:47:40;;;;;;;;;;;;;;;9.79;100.00;101718.44;6180364;23;20208;-81
2023/11/23 09:50:05;;;;;;;;;;;;;;;9.71;100.00;101706.66;6181634;23;20194;-80
2023/11/23 09:52:31;;;;;;;;;;;;;;;9.71;100.00;101713.88;6180747;23;19947;-80
2023/11/23 09:54:56;;;;;;;;;;;;;;;9.74;100.00;101700.09;6182807;23;20119;-79
2023/11/23 09:57:22;;;;;;;;;;;;;;;9.70;100.00;101699.59;6182642;23;19986;-79
2023/11/23 09:59:48;;;;;;;;;;;;;;;9.69;100.00;101706.00;6183005;23;19912;-78
2023/11/23 10:02:13;;;;;;;;;;;;;;;9.66;100.00;101697.44;6182620;23;20289;-81
2023/11/23 10:04:39;;;;;;;;;;;;;;;9.63;100.00;101684.34;6186908;23;20225;-85
2023/11/23 10:07:07;;;;;;;;;;;;;;;9.76;100.00;101695.41;6186400;23;19986;-86
2023/11/23 10:09:35;;;;;;;;;;;;;;;9.78;100.00;101685.31;6184045;23;20328;-85
2023/11/23 10:12:02;;;;;;;;;;;;;;;9.79;100.00;101692.38;6184632;23;20229;-79
2023/11/23 10:14:40;;;;;;;;;;;;;;;;;;;;;
2023/11/23 10:17:14;;;;;;;;;;;;;;;9.68;100.00;101696.25;6177990;23;19979;-78
2023/11/23 10:19:40;;;;;;;;;;;;;;;9.67;100.00;101694.56;6182181;23;19916;-78
2023/11/23 10:22:05;;;;;;;;;;;;;;;9.64;100.00;101702.97;6183859;23;19952;-78
2023/11/23 10:24:30;;;;;;;;;;;;;;;9.65;100.00;101683.13;6183091;23;19918;-79
2023/11/23 10:26:56;;;;;;;;;;;;;;;9.66;100.00;101675.94;6181800;23;19956;-80
2023/11/23 10:29:32;;;;;;;;;;;;;;;9.66;100.00;101663.31;6183866;23;19918;-79
2023/11/23 10:32:00;;;;;;;;;;;;;;;9.71;100.00;101662.78;6183505;23;19935;-79
2023/11/23 10:34:26;;;;;;;;;;;;;;;9.73;100.00;101663.47;6181574;23;19920;-76
2023/11/23 10:36:52;;;;;;;;;;;;;;;9.70;100.00;101674.59;6182902;23;19950;-77
2023/11/23 10:39:18;;;;;;;;;;;;;;;9.77;100.00;101688.19;6181407;23;19912;-77
2023/11/23 10:41:44;;;;;;;;;;;;;;;9.80;100.00;101687.81;6181771;23;19968;-77
2023/11/23 10:44:10;;;;;;;;;;;;;;;9.93;100.00;101663.94;6182900;23;19920;-77
2023/11/23 10:46:38;;;;;;;;;;;;;;;10.00;100.00;101672.16;6192642;23;20423;-77
2023/11/23 10:49:04;;;;;;;;;;;;;;;10.06;100.00;101652.59;6182616;23;20283;-78
2023/11/23 10:51:29;;;;;;;;;;;;;;;10.19;100.00;101630.53;6180953;23;19943;-78
2023/11/23 10:53:54;;;;;;;;;;;;;;;10.25;100.00;101615.53;6180967;23;19920;-78
2023/11/23 10:56:20;;;;;;;;;;;;;;;10.28;100.00;101609.81;6181721;23;19954;-78
2023/11/23 10:58:46;;;;;;;;;;;;;;;10.37;100.00;101589.06;6181551;23;19924;-78
2023/11/23 11:01:12;;;;;;;;;;;;;;;10.38;100.00;101599.72;6181831;23;19931;-78
2023/11/23 11:03:38;;;;;;;;;;;;;;;10.44;100.00;101608.91;6179907;23;19912;-77
2023/11/23 11:06:07;;;;;;;;;;;;;;;10.48;100.00;101593.25;6182265;23;20033;-77
2023/11/23 11:08:32;;;;;;;;;;;;;;;10.41;100.00;101590.44;6181251;23;19987;-76
2023/11/23 11:10:57;;;;;;;;;;;;;;;10.38;100.00;101588.06;6181519;23;19994;-76
2023/11/23 11:13:26;;;;;;;;;;;;;;;10.34;100.00;101584.88;6183220;23;19912;-76
2023/11/23 11:15:59;;;;;;;;;;;;;;;10.30;100.00;101576.34;6181866;23;20091;-76
2023/11/23 11:18:27;;;;;;;;;;;;;;;10.22;100.00;101573.69;6181285;23;19912;-77
2023/11/23 11:21:00;;;;;;;;;;;;;;;10.34;100.00;101568.75;6182778;23;19912;-77
2023/11/23 11:23:44;;;;;;;;;;;;;;;10.28;100.00;101545.22;6177981;23;20003;-76
2023/11/23 11:26:12;;;;;;;;;;;;;;;10.37;100.00;101551.38;6179657;23;19994;-77
2023/11/23 11:28:38;;;;;;;;;;;;;;;10.29;100.00;101563.03;6183006;23;19912;-77
2023/11/23 11:31:04;;;;;;;;;;;;;;;10.21;100.00;101549.66;6180009;23;19916;-77
2023/11/23 11:33:30;;;;;;;;;;;;;;;10.23;100.00;101563.78;6182118;23;19951;-76
2023/11/23 11:35:57;;;;;;;;;;;;;;;10.28;100.00;101561.38;6182078;23;19979;-76
2023/11/23 11:38:22;;;;;;;;;;;;;;;10.46;100.00;101556.56;6177059;23;19950;-77
2023/11/23 11:40:47;;;;;;;;;;;;;;;10.49;100.00;101568.00;6179575;23;19956;-78
2023/11/23 11:43:15;;;;;;;;;;;;;;;10.48;100.00;101555.56;6184694;23;19915;-77
2023/11/23 11:45:40;;;;;;;;;;;;;;;10.49;100.00;101554.53;6182797;23;20388;-76
2023/11/23 11:48:05;;;;;;;;;;;;;;;10.53;100.00;101558.56;6183449;23;20329;-76
2023/11/23 11:50:30;;;;;;;;;;;;;;;10.50;100.00;101566.97;6186795;23;20002;-77
2023/11/23 11:52:56;;;;;;;;;;;;;;;10.55;100.00;101543.06;6187207;23;19912;-77
2023/11/23 11:55:24;;;;;;;;;;;;;;;10.52;100.00;101546.13;6188387;23;19916;-77
2023/11/23 11:57:50;;;;;;;;;;;;;;;10.54;100.00;101542.22;6188767;23;20336;-77
2023/11/23 12:00:15;;;;;;;;;;;;;;;10.46;100.00;101539.59;6184302;23;19916;-77
2023/11/23 12:02:42;;;;;;;;;;;;;;;10.42;100.00;101541.78;6179991;23;20146;-77
2023/11/23 12:05:08;;;;;;;;;;;;;;;10.46;100.00;101545.81;6183243;23;19917;-77
2023/11/23 12:07:33;;;;;;;;;;;;;;;10.50;100.00;101542.75;6184794;23;19994;-76
2023/11/23 12:10:01;;;;;;;;;;;;;;;10.51;100.00;101533.66;6185790;23;20432;-76
2023/11/23 12:12:26;;;;;;;;;;;;;;;10.46;100.00;101508.13;6182252;23;20547;-76
2023/11/23 12:14:54;;;;;;;;;;;;;;;10.41;100.00;101505.13;6183462;22;19924;-77
2023/11/23 12:17:19;;;;;;;;;;;;;;;10.57;100.00;101500.66;6156150;23;19935;-77
2023/11/23 12:19:51;;;;;;;;;;;;;;;10.50;100.00;101489.75;6183718;23;19919;-76
2023/11/23 12:22:19;;;;;;;;;;;;;;;10.58;100.00;101488.88;6185689;23;19912;-77
2023/11/23 12:24:44;;;;;;;;;;;;;;;10.56;100.00;101489.03;6184827;23;20194;-76
2023/11/23 12:27:10;;;;;;;;;;;;;;;10.63;100.00;101493.69;6184782;23;19916;-77
2023/11/23 12:29:38;;;;;;;;;;;;;;;10.61;100.00;101496.56;6184393;23;19923;-76
2023/11/23 12:32:04;;;;;;;;;;;;;;;10.70;100.00;101478.47;6182808;23;19920;-76
2023/11/23 12:34:30;;;;;;;;;;;;;;;10.68;100.00;101467.06;6183396;23;19957;-76
2023/11/23 12:36:58;;;;;;;;;;;;;;;10.69;100.00;101456.09;6183753;23;20263;-76
2023/11/23 12:39:24;;;;;;;;;;;;;;;10.73;100.00;101441.25;6183951;23;19912;-76
2023/11/23 12:41:49;;;;;;;;;;;;;;;10.71;100.00;101432.53;6182861;23;19912;-76
2023/11/23 12:44:15;;;;;;;;;;;;;;;10.69;100.00;101433.72;6184301;23;19986;-78
2023/11/23 12:46:41;;;;;;;;;;;;;;;10.65;100.00;101429.75;6183460;23;19936;-76
2023/11/23 12:49:06;;;;;;;;;;;;;;;10.70;100.00;101420.09;6184286;23;19923;-77
2023/11/23 12:51:34;;;;;;;;;;;;;;;10.72;100.00;101422.59;6185913;23;19913;-77
2023/11/23 12:54:03;;;;;;;;;;;;;;;10.76;100.00;101416.66;6185036;23;19923;-77
2023/11/23 12:56:28;;;;;;;;;;;;;;;10.80;100.00;101409.03;6185364;23;19912;-76
2023/11/23 12:58:54;;;;;;;;;;;;;;;10.74;100.00;101407.94;6157415;23;19919;-77
2023/11/23 13:01:19;;;;;;;;;;;;;;;10.80;100.00;101408.19;6184264;23;19955;-79
2023/11/23 13:03:44;;;;;;;;;;;;;;;10.81;100.00;101404.47;6184411;23;19912;-78
2023/11/23 13:06:10;;;;;;;;;;;;;;;10.81;100.00;101391.00;6183384;23;19999;-76
2023/11/23 13:08:35;;;;;;;;;;;;;;;10.90;100.00;101376.44;6182049;23;19952;-76
2023/11/23 13:11:00;;;;;;;;;;;;;;;10.89;100.00;101380.97;6183153;23;19923;-78
2023/11/23 13:13:26;;;;;;;;;;;;;;;10.84;100.00;101385.25;6184518;23;19912;-77
2023/11/23 13:15:51;;;;;;;;;;;;;;;10.81;100.00;101382.94;6183222;23;19920;-77
2023/11/23 13:18:16;;;;;;;;;;;;;;;10.86;100.00;101389.44;6157314;23;20330;-78
2023/11/23 13:20:42;;;;;;;;;;;;;;;10.88;100.00;101373.09;6185310;23;20384;-77
2023/11/23 13:23:07;;;;;;;;;;;;;;;10.86;100.00;101385.91;6185909;23;20310;-77
2023/11/23 13:25:33;;;;;;;;;;;;;;;10.89;100.00;101369.38;6186167;23;19935;-77
2023/11/23 13:27:58;;;;;;;;;;;;;;;10.91;100.00;101364.66;6186985;23;19916;-80
2023/11/23 13:30:30;;;;;;;;;;;;;;;10.86;100.00;101349.03;6205095;23;19951;-82
2023/11/23 13:32:56;;;;;;;;;;;;;;;10.91;100.00;101340.41;6184925;23;19913;-80
2023/11/23 13:35:22;;;;;;;;;;;;;;;10.87;100.00;101337.22;6183768;23;19912;-79
2023/11/23 13:37:48;;;;;;;;;;;;;;;10.84;100.00;101332.25;6183128;23;20249;-80
2023/11/23 13:40:13;;;;;;;;;;;;;;;10.82;100.00;101333.44;6183914;23;19912;-82
2023/11/23 13:42:42;;;;;;;;;;;;;;;10.81;100.00;101335.31;6183858;23;19913;-82
2023/11/23 13:51:17;;;;;;;;;;;;;;;10.77;100.00;101345.59;6183289;23;19920;-78
2023/11/23 14:03:00;;;;;;;;;;;;;;;10.74;100.00;101329.84;6091721;23;19914;-78